createdAt,value
2018-05-26T00:02:06.884Z,98.00
2018-05-26T00:04:34.466Z,98.00
2018-05-26T00:07:02.038Z,98.10
2018-05-26T00:09:29.681Z,97.90
2018-05-26T00:11:57.355Z,98.00
2018-05-26T00:14:24.952Z,98.20
2018-05-26T00:16:53.281Z,98.40
2018-05-26T00:19:20.958Z,98.30
2018-05-26T00:21:48.524Z,98.60
2018-05-26T00:24:16.084Z,98.70
2018-05-26T00:26:43.790Z,98.90
2018-05-26T00:29:11.365Z,99.10
2018-05-26T00:31:38.939Z,99.20
2018-05-26T00:34:06.507Z,99.20
2018-05-26T00:36:34.243Z,99.40
2018-05-26T00:39:01.823Z,99.30
2018-05-26T00:41:29.484Z,99.20
2018-05-26T00:43:57.053Z,99.20
2018-05-26T00:46:24.634Z,99.30
2018-05-26T00:48:52.360Z,99.40
2018-05-26T00:51:21.755Z,99.70
2018-05-26T00:53:49.335Z,99.40
2018-05-26T00:56:17.045Z,99.40
2018-05-26T00:58:44.636Z,99.50
2018-05-26T01:01:12.177Z,99.00
2018-05-26T01:03:39.743Z,99.40
2018-05-26T01:06:07.533Z,98.80
2018-05-26T01:08:35.298Z,99.00
2018-05-26T01:11:02.904Z,99.20
2018-05-26T01:13:30.565Z,99.50
2018-05-26T01:15:58.905Z,99.90
2018-05-26T01:18:26.472Z,99.80
2018-05-26T01:20:54.043Z,99.90
2018-05-26T01:23:21.800Z,99.90
2018-05-26T01:25:49.385Z,99.90
2018-05-26T01:28:16.948Z,99.90
2018-05-26T01:30:45.290Z,99.90
2018-05-26T01:33:12.848Z,99.90
2018-05-26T01:35:40.428Z,99.90
2018-05-26T01:38:07.976Z,99.90
2018-05-26T01:40:35.715Z,99.90
2018-05-26T01:43:03.295Z,99.90
2018-05-26T01:45:30.908Z,99.90
2018-05-26T01:47:58.551Z,99.90
2018-05-26T01:50:26.092Z,99.90
2018-05-26T01:52:53.936Z,99.90
2018-05-26T01:55:21.623Z,99.90
2018-05-26T01:57:49.444Z,99.90
2018-05-26T02:00:17.014Z,99.90
2018-05-26T02:02:44.608Z,99.90
2018-05-26T02:05:12.168Z,99.90
2018-05-26T02:07:40.493Z,99.90
2018-05-26T02:10:08.275Z,99.90
2018-05-26T02:12:35.831Z,99.90
2018-05-26T02:15:03.408Z,99.90
2018-05-26T02:17:30.988Z,99.90
2018-05-26T02:19:58.579Z,99.90
2018-05-26T02:22:26.457Z,99.90
2018-05-26T02:24:54.037Z,99.90
2018-05-26T02:27:21.599Z,99.90
2018-05-26T02:29:49.196Z,99.90
2018-05-26T02:32:18.259Z,99.90
2018-05-26T02:34:45.829Z,99.90
2018-05-26T02:37:13.408Z,99.90
2018-05-26T02:39:40.973Z,99.90
2018-05-26T02:42:09.277Z,99.90
2018-05-26T02:44:36.831Z,99.90
2018-05-26T02:47:04.492Z,99.90
2018-05-26T02:49:32.079Z,99.90
2018-05-26T02:51:59.732Z,99.90
2018-05-26T02:54:27.305Z,99.90
2018-05-26T02:56:54.877Z,99.90
2018-05-26T02:59:22.429Z,99.90
2018-05-26T03:01:50.001Z,99.90
2018-05-26T03:04:23.104Z,99.90
2018-05-26T03:06:56.162Z,99.90
2018-05-26T03:09:29.373Z,99.90
2018-05-26T03:12:02.613Z,99.90
2018-05-26T03:14:35.648Z,99.90
2018-05-26T03:17:03.247Z,99.90
2018-05-26T03:19:30.829Z,99.90
2018-05-26T03:21:58.404Z,99.90
2018-05-26T03:24:25.992Z,99.90
2018-05-26T03:26:53.717Z,99.90
2018-05-26T03:29:21.300Z,99.90
2018-05-26T03:31:48.865Z,99.90
2018-05-26T03:34:16.427Z,99.90
2018-05-26T03:36:43.975Z,99.90
2018-05-26T03:39:11.552Z,99.90
2018-05-26T03:41:39.271Z,99.90
2018-05-26T03:44:06.984Z,99.90
2018-05-26T03:46:34.562Z,99.90
2018-05-26T03:49:02.163Z,99.90
2018-05-26T03:51:29.750Z,99.90
2018-05-26T03:53:57.363Z,99.90
2018-05-26T03:56:36.704Z,99.90
2018-05-26T03:59:16.101Z,99.90
2018-05-26T04:01:43.808Z,99.70
2018-05-26T04:04:11.371Z,99.80
2018-05-26T04:06:38.961Z,99.70
2018-05-26T04:09:06.511Z,99.70
2018-05-26T04:11:34.125Z,99.60
2018-05-26T04:14:01.710Z,99.30
2018-05-26T04:16:29.272Z,99.20
2018-05-26T04:18:56.842Z,99.20
2018-05-26T04:21:24.388Z,99.00
2018-05-26T04:23:51.992Z,99.10
2018-05-26T04:26:19.540Z,99.00
2018-05-26T04:28:47.151Z,99.10
2018-05-26T04:31:14.713Z,98.90
2018-05-26T04:33:42.279Z,98.70
2018-05-26T04:36:09.855Z,98.60
2018-05-26T04:38:37.469Z,98.60
2018-05-26T04:41:05.985Z,98.50
2018-05-26T04:43:33.560Z,98.40
2018-05-26T04:46:01.201Z,98.40
2018-05-26T04:48:28.805Z,98.70
2018-05-26T04:50:57.139Z,97.50
2018-05-26T04:53:24.714Z,97.50
2018-05-26T04:55:52.557Z,97.10
2018-05-26T04:58:20.128Z,96.90
2018-05-26T05:00:47.888Z,96.90
2018-05-26T05:03:15.597Z,97.00
2018-05-26T05:05:43.262Z,97.00
2018-05-26T05:08:10.808Z,97.20
2018-05-26T05:10:38.385Z,97.40
2018-05-26T05:13:05.970Z,97.60
2018-05-26T05:15:33.528Z,97.50
2018-05-26T05:18:01.106Z,97.40
2018-05-26T05:20:28.693Z,97.10
2018-05-26T05:22:56.286Z,96.70
2018-05-26T05:25:23.845Z,96.60
2018-05-26T05:27:51.473Z,96.40
2018-05-26T05:30:19.017Z,96.20
2018-05-26T05:32:46.596Z,96.10
2018-05-26T05:35:14.972Z,96.20
2018-05-26T05:37:42.542Z,96.10
2018-05-26T05:40:10.119Z,96.00
2018-05-26T05:42:37.724Z,96.00
2018-05-26T05:45:05.258Z,95.80
2018-05-26T05:47:32.861Z,95.80
2018-05-26T05:50:00.656Z,96.00
2018-05-26T05:52:28.213Z,96.00
2018-05-26T05:54:56.016Z,95.90
2018-05-26T05:57:23.589Z,95.50
2018-05-26T05:59:51.165Z,95.30
2018-05-26T06:02:18.962Z,95.30
2018-05-26T06:04:46.564Z,95.10
2018-05-26T06:07:14.115Z,95.00
2018-05-26T06:09:41.712Z,94.90
2018-05-26T06:12:09.262Z,95.00
2018-05-26T06:14:37.012Z,94.30
2018-05-26T06:17:04.600Z,94.40
2018-05-26T06:19:32.176Z,94.20
2018-05-26T06:21:59.813Z,94.10
2018-05-26T06:24:27.388Z,94.00
2018-05-26T06:26:54.952Z,93.90
2018-05-26T06:29:22.520Z,93.70
2018-05-26T06:31:50.168Z,93.60
2018-05-26T06:34:17.691Z,93.50
2018-05-26T06:36:45.428Z,93.40
2018-05-26T06:39:13.754Z,93.20
2018-05-26T06:41:41.319Z,93.20
2018-05-26T06:44:09.157Z,93.10
2018-05-26T06:46:36.745Z,93.00
2018-05-26T06:49:04.320Z,92.10
2018-05-26T06:51:31.947Z,91.50
2018-05-26T06:53:59.508Z,91.20
2018-05-26T06:56:27.092Z,90.80
2018-05-26T06:58:54.671Z,90.10
2018-05-26T07:01:22.237Z,87.50
2018-05-26T07:03:50.594Z,88.00
2018-05-26T07:06:18.152Z,87.50
2018-05-26T07:08:45.895Z,88.30
2018-05-26T07:11:13.544Z,88.50
2018-05-26T07:13:41.296Z,87.80
2018-05-26T07:16:08.855Z,84.20
2018-05-26T07:18:36.435Z,83.90
2018-05-26T07:21:04.178Z,80.60
2018-05-26T07:23:31.945Z,78.70
2018-05-26T07:25:59.529Z,78.50
2018-05-26T07:28:27.527Z,79.80
2018-05-26T07:30:56.145Z,80.70
2018-05-26T07:33:23.720Z,77.40
2018-05-26T07:35:51.309Z,77.60
2018-05-26T07:38:18.900Z,77.30
2018-05-26T07:40:46.444Z,76.20
2018-05-26T07:43:14.014Z,77.00
2018-05-26T07:45:41.604Z,74.70
2018-05-26T07:48:09.180Z,73.60
2018-05-26T07:50:36.748Z,72.30
2018-05-26T07:53:04.348Z,71.10
2018-05-26T07:55:31.888Z,69.80
2018-05-26T07:57:59.438Z,68.50
2018-05-26T08:00:27.272Z,66.10
2018-05-26T08:02:54.824Z,63.20
2018-05-26T08:05:22.473Z,62.70
2018-05-26T08:07:49.981Z,63.20
2018-05-26T08:10:17.653Z,63.00
2018-05-26T08:12:45.225Z,63.30
2018-05-26T08:15:13.060Z,60.00
2018-05-26T08:17:40.636Z,62.30
2018-05-26T08:20:08.243Z,61.70
2018-05-26T08:22:35.879Z,59.80
2018-05-26T08:25:04.415Z,58.10
2018-05-26T08:27:32.251Z,57.40
2018-05-26T08:30:00.053Z,57.80
2018-05-26T08:32:27.660Z,57.40
2018-05-26T08:34:55.261Z,56.40
2018-05-26T08:37:23.022Z,56.40
2018-05-26T08:39:50.588Z,55.50
2018-05-26T08:42:18.185Z,54.30
2018-05-26T08:44:45.774Z,53.10
2018-05-26T08:47:13.380Z,53.20
2018-05-26T08:49:42.173Z,49.80
2018-05-26T08:52:09.764Z,50.50
2018-05-26T08:54:37.316Z,49.50
2018-05-26T08:57:05.136Z,50.00
2018-05-26T08:59:32.707Z,50.40
2018-05-26T09:02:00.280Z,49.40
2018-05-26T09:04:27.867Z,48.20
2018-05-26T09:06:56.203Z,49.50
2018-05-26T09:09:23.769Z,49.30
2018-05-26T09:11:51.354Z,47.20
2018-05-26T09:14:18.919Z,46.00
2018-05-26T09:16:46.491Z,47.70
2018-05-26T09:19:14.290Z,45.90
2018-05-26T09:21:41.872Z,46.10
2018-05-26T09:24:09.552Z,48.00
2018-05-26T09:26:37.130Z,46.00
2018-05-26T09:29:04.748Z,45.10
2018-05-26T09:31:32.342Z,43.90
2018-05-26T09:34:00.733Z,44.10
2018-05-26T09:36:28.288Z,44.10
2018-05-26T09:38:55.938Z,44.30
2018-05-26T09:41:24.318Z,42.40
2018-05-26T09:43:51.905Z,42.40
2018-05-26T09:46:19.491Z,42.10
2018-05-26T09:48:47.299Z,40.50
2018-05-26T09:51:14.890Z,41.40
2018-05-26T09:53:42.479Z,40.60
2018-05-26T09:56:10.064Z,40.50
2018-05-26T09:58:37.635Z,41.00
2018-05-26T10:01:05.244Z,40.40
2018-05-26T10:03:33.662Z,39.80
2018-05-26T10:06:01.397Z,39.80
2018-05-26T10:08:29.028Z,39.60
2018-05-26T10:10:56.795Z,37.90
2018-05-26T10:13:25.151Z,36.70
2018-05-26T10:15:52.760Z,36.70
2018-05-26T10:18:20.324Z,36.50
2018-05-26T10:20:47.893Z,35.00
2018-05-26T10:23:15.493Z,34.70
2018-05-26T10:25:43.054Z,33.90
2018-05-26T10:28:10.677Z,35.00
2018-05-26T10:30:38.277Z,32.50
2018-05-26T10:33:05.871Z,33.20
2018-05-26T10:35:33.531Z,30.80
2018-05-26T10:38:01.081Z,30.50
2018-05-26T10:40:29.407Z,30.70
2018-05-26T10:42:57.162Z,30.60
2018-05-26T10:45:36.585Z,29.70
2018-05-26T10:48:04.146Z,30.30
2018-05-26T10:50:31.737Z,30.40
2018-05-26T10:53:00.869Z,27.30
2018-05-26T10:55:28.491Z,27.30
2018-05-26T10:57:56.059Z,27.20
2018-05-26T11:00:23.654Z,27.00
2018-05-26T11:02:51.228Z,27.60
2018-05-26T11:05:18.774Z,28.30
2018-05-26T11:07:46.351Z,29.00
2018-05-26T11:10:13.917Z,28.00
2018-05-26T11:12:41.663Z,27.40
2018-05-26T11:15:09.242Z,26.70
2018-05-26T11:17:36.829Z,26.80
2018-05-26T11:20:04.404Z,26.60
2018-05-26T11:22:32.018Z,27.10
2018-05-26T11:24:59.786Z,26.70
2018-05-26T11:27:27.438Z,26.30
2018-05-26T11:29:55.091Z,26.00
2018-05-26T11:32:23.454Z,26.00
2018-05-26T11:34:51.016Z,25.90
2018-05-26T11:37:19.688Z,24.90
2018-05-26T11:39:47.241Z,24.90
2018-05-26T11:42:15.615Z,25.80
2018-05-26T11:44:44.048Z,25.10
2018-05-26T11:47:11.619Z,25.10
2018-05-26T11:49:39.207Z,24.80
2018-05-26T11:52:06.761Z,25.30
2018-05-26T11:54:34.480Z,24.70
2018-05-26T11:57:02.049Z,23.80
2018-05-26T11:59:29.909Z,24.60
2018-05-26T12:01:57.534Z,24.80
2018-05-26T12:04:25.138Z,24.30
2018-05-26T12:06:52.705Z,24.20
2018-05-26T12:09:20.324Z,23.50
2018-05-26T12:11:48.656Z,22.50
2018-05-26T12:14:16.452Z,22.50
2018-05-26T12:16:44.796Z,22.40
2018-05-26T12:19:12.373Z,22.50
2018-05-26T12:21:40.033Z,22.70
2018-05-26T12:24:07.629Z,22.00
2018-05-26T12:26:35.388Z,22.10
2018-05-26T12:29:03.764Z,21.70
2018-05-26T12:31:31.370Z,21.70
2018-05-26T12:33:59.193Z,23.20
2018-05-26T12:36:27.792Z,23.20
2018-05-26T12:38:55.366Z,23.10
2018-05-26T12:41:22.980Z,22.20
2018-05-26T12:43:51.355Z,20.50
2018-05-26T12:46:18.956Z,20.50
2018-05-26T12:48:46.541Z,21.60
2018-05-26T12:51:14.171Z,21.70
2018-05-26T12:53:44.942Z,20.80
2018-05-26T12:56:12.579Z,21.40
2018-05-26T12:58:40.169Z,21.10
2018-05-26T13:01:07.757Z,20.40
2018-05-26T13:03:35.461Z,21.60
2018-05-26T13:06:03.035Z,21.10
2018-05-26T13:08:30.646Z,21.90
2018-05-26T13:10:58.971Z,21.00
2018-05-26T13:13:26.596Z,21.00
2018-05-26T13:15:54.274Z,21.60
2018-05-26T13:18:22.049Z,22.70
2018-05-26T13:20:50.430Z,21.40
2018-05-26T13:23:17.992Z,21.20
2018-05-26T13:25:45.863Z,20.70
2018-05-26T13:28:13.429Z,21.70
2018-05-26T13:30:41.024Z,21.10
2018-05-26T13:33:08.574Z,19.60
2018-05-26T13:35:36.190Z,20.20
2018-05-26T13:38:03.816Z,19.30
2018-05-26T13:40:32.207Z,19.90
2018-05-26T13:42:59.897Z,20.00
2018-05-26T13:45:27.519Z,17.70
2018-05-26T13:47:55.108Z,19.00
2018-05-26T13:50:22.700Z,19.40
2018-05-26T13:52:50.260Z,20.90
2018-05-26T13:55:18.669Z,20.00
2018-05-26T13:57:46.236Z,20.00
2018-05-26T14:00:14.059Z,18.80
2018-05-26T14:02:41.746Z,18.70
2018-05-26T14:05:10.847Z,19.40
2018-05-26T14:07:38.586Z,19.30
2018-05-26T14:10:06.299Z,20.40
2018-05-26T14:12:34.196Z,20.00
2018-05-26T14:15:01.800Z,19.90
2018-05-26T14:17:29.405Z,20.20
2018-05-26T14:19:57.132Z,20.50
2018-05-26T14:22:25.532Z,24.10
2018-05-26T14:24:53.134Z,24.60
2018-05-26T14:27:20.710Z,24.20
2018-05-26T14:29:48.272Z,23.80
2018-05-26T14:32:17.397Z,21.50
2018-05-26T14:34:44.948Z,21.50
2018-05-26T14:37:13.309Z,21.00
2018-05-26T14:39:41.033Z,20.90
2018-05-26T14:42:08.627Z,20.10
2018-05-26T14:44:36.188Z,19.30
2018-05-26T14:47:03.736Z,20.10
2018-05-26T14:49:31.469Z,19.10
2018-05-26T14:51:59.186Z,18.80
2018-05-26T14:54:26.772Z,20.50
2018-05-26T14:56:54.595Z,19.70
2018-05-26T14:59:22.203Z,20.10
2018-05-26T15:01:49.792Z,18.90
2018-05-26T15:04:17.375Z,20.20
2018-05-26T15:06:45.031Z,20.50
2018-05-26T15:09:12.761Z,20.40
2018-05-26T15:11:40.624Z,20.10
2018-05-26T15:14:08.268Z,21.80
2018-05-26T15:16:36.071Z,21.90
2018-05-26T15:19:03.659Z,22.50
2018-05-26T15:21:31.227Z,24.00
2018-05-26T15:23:58.799Z,21.50
2018-05-26T15:26:27.424Z,20.80
2018-05-26T15:28:54.997Z,20.80
2018-05-26T15:31:22.590Z,21.50
2018-05-26T15:33:50.164Z,21.90
2018-05-26T15:36:17.858Z,22.20
2018-05-26T15:38:45.490Z,21.70
2018-05-26T15:41:13.101Z,22.60
2018-05-26T15:43:40.730Z,21.10
2018-05-26T15:46:08.332Z,21.40
2018-05-26T15:48:35.908Z,22.50
2018-05-26T15:51:03.483Z,23.10
2018-05-26T15:53:31.237Z,23.10
2018-05-26T15:55:58.832Z,22.60
2018-05-26T15:58:26.421Z,23.00
2018-05-26T16:00:53.989Z,23.80
2018-05-26T16:03:21.563Z,23.00
2018-05-26T16:05:49.127Z,23.00
2018-05-26T16:08:16.698Z,24.50
2018-05-26T16:10:44.308Z,23.70
2018-05-26T16:13:11.973Z,25.50
2018-05-26T16:15:39.612Z,25.30
2018-05-26T16:18:07.168Z,26.40
2018-05-26T16:20:34.848Z,27.40
2018-05-26T16:23:02.425Z,27.60
2018-05-26T16:25:30.099Z,27.60
2018-05-26T16:27:57.773Z,28.90
2018-05-26T16:30:25.396Z,29.00
2018-05-26T16:32:52.963Z,28.40
2018-05-26T16:35:20.710Z,29.60
2018-05-26T16:37:48.255Z,30.00
2018-05-26T16:40:15.863Z,28.80
2018-05-26T16:42:43.532Z,29.20
2018-05-26T16:45:11.116Z,29.10
2018-05-26T16:47:38.684Z,29.60
2018-05-26T16:50:06.292Z,30.00
2018-05-26T16:52:34.172Z,30.90
2018-05-26T16:55:01.743Z,31.50
2018-05-26T16:57:29.355Z,32.70
2018-05-26T16:59:57.228Z,32.10
2018-05-26T17:02:24.844Z,33.30
2018-05-26T17:04:52.403Z,32.90
2018-05-26T17:07:20.025Z,34.50
2018-05-26T17:09:47.637Z,34.40
2018-05-26T17:12:15.247Z,34.20
2018-05-26T17:14:42.842Z,35.00
2018-05-26T17:17:10.429Z,35.00
2018-05-26T17:19:37.980Z,34.90
2018-05-26T17:22:06.450Z,36.10
2018-05-26T17:24:34.460Z,36.00
2018-05-26T17:27:02.047Z,37.30
2018-05-26T17:29:29.624Z,36.30
2018-05-26T17:31:57.219Z,36.70
2018-05-26T17:34:24.976Z,37.40
2018-05-26T17:36:53.325Z,38.40
2018-05-26T17:39:20.924Z,38.40
2018-05-26T17:41:49.257Z,39.80
2018-05-26T17:44:16.853Z,39.70
2018-05-26T17:46:44.858Z,39.00
2018-05-26T17:49:13.348Z,39.40
2018-05-26T17:51:40.929Z,39.70
2018-05-26T17:54:08.538Z,40.70
2018-05-26T17:56:39.076Z,41.60
2018-05-26T17:59:06.669Z,42.20
2018-05-26T18:01:34.244Z,42.70
2018-05-26T18:04:01.811Z,43.50
2018-05-26T18:06:29.400Z,44.20
2018-05-26T18:08:56.981Z,44.00
2018-05-26T18:11:24.669Z,44.80
2018-05-26T18:13:52.302Z,45.00
2018-05-26T18:16:19.908Z,45.30
2018-05-26T18:18:47.495Z,46.20
2018-05-26T18:21:15.852Z,47.00
2018-05-26T18:23:43.455Z,47.10
2018-05-26T18:26:11.037Z,47.40
2018-05-26T18:28:38.770Z,48.30
2018-05-26T18:31:07.221Z,50.60
2018-05-26T18:33:34.871Z,50.60
2018-05-26T18:36:02.477Z,50.90
2018-05-26T18:38:30.105Z,51.00
2018-05-26T18:40:57.670Z,51.00
2018-05-26T18:43:25.272Z,51.60
2018-05-26T18:45:52.835Z,52.90
2018-05-26T18:48:20.442Z,53.20
2018-05-26T18:50:47.997Z,53.80
2018-05-26T18:53:15.592Z,54.50
2018-05-26T18:55:43.225Z,55.20
2018-05-26T18:58:10.832Z,55.40
2018-05-26T19:00:38.534Z,56.60
2018-05-26T19:03:06.108Z,57.30
2018-05-26T19:05:34.706Z,58.20
2018-05-26T19:08:03.184Z,58.70
2018-05-26T19:10:31.587Z,59.10
2018-05-26T19:12:59.135Z,58.80
2018-05-26T19:15:27.474Z,60.70
2018-05-26T19:17:55.240Z,60.70
2018-05-26T19:20:22.872Z,62.20
2018-05-26T19:22:51.750Z,62.90
2018-05-26T19:25:19.356Z,62.90
2018-05-26T19:27:46.966Z,63.00
2018-05-26T19:30:14.561Z,65.10
2018-05-26T19:32:42.139Z,66.10
2018-05-26T19:35:09.729Z,66.40
2018-05-26T19:37:38.095Z,67.80
2018-05-26T19:40:05.793Z,67.70
2018-05-26T19:42:33.411Z,68.20
2018-05-26T19:45:01.189Z,69.40
2018-05-26T19:47:29.607Z,71.80
2018-05-26T19:49:57.279Z,71.70
2018-05-26T19:52:24.778Z,72.90
2018-05-26T19:54:53.425Z,74.30
2018-05-26T19:57:21.016Z,74.20
2018-05-26T19:59:48.724Z,74.90
2018-05-26T20:02:16.296Z,75.20
2018-05-26T20:04:44.085Z,75.80
2018-05-26T20:07:11.694Z,76.50
2018-05-26T20:09:39.262Z,77.20
2018-05-26T20:12:06.893Z,77.30
2018-05-26T20:14:35.513Z,77.40
2018-05-26T20:17:03.131Z,77.30
2018-05-26T20:19:31.537Z,79.50
2018-05-26T20:22:00.031Z,80.10
2018-05-26T20:24:28.497Z,80.40
2018-05-26T20:26:56.903Z,80.40
2018-05-26T20:29:24.485Z,80.40
2018-05-26T20:31:52.042Z,81.30
2018-05-26T20:34:19.675Z,81.40
2018-05-26T20:36:47.278Z,81.60
2018-05-26T20:39:16.396Z,82.40
2018-05-26T20:41:43.972Z,82.30
2018-05-26T20:44:11.568Z,82.80
2018-05-26T20:46:39.151Z,83.60
2018-05-26T20:49:06.872Z,84.20
2018-05-26T20:51:34.533Z,83.90
2018-05-26T20:54:02.338Z,84.10
2018-05-26T20:56:29.902Z,84.00
2018-05-26T20:58:57.581Z,83.70
2018-05-26T21:01:25.215Z,83.90
2018-05-26T21:03:52.787Z,84.40
2018-05-26T21:06:20.454Z,84.80
2018-05-26T21:08:48.057Z,84.90
2018-05-26T21:11:15.672Z,85.40
2018-05-26T21:13:43.257Z,85.20
2018-05-26T21:16:10.859Z,84.90
2018-05-26T21:18:38.428Z,86.00
2018-05-26T21:21:06.059Z,87.60
2018-05-26T21:23:33.647Z,87.50
2018-05-26T21:26:01.257Z,87.80
2018-05-26T21:28:29.600Z,87.90
2018-05-26T21:30:57.347Z,87.80
2018-05-26T21:33:25.009Z,88.10
2018-05-26T21:35:52.623Z,88.30
2018-05-26T21:38:20.227Z,88.70
2018-05-26T21:40:47.870Z,88.80
2018-05-26T21:43:15.832Z,89.00
2018-05-26T21:45:43.559Z,89.10
2018-05-26T21:48:11.329Z,89.40
2018-05-26T21:50:38.928Z,90.00
2018-05-26T21:53:06.880Z,90.10
2018-05-26T21:55:34.457Z,90.10
2018-05-26T21:58:02.114Z,90.20
2018-05-26T22:00:29.678Z,90.20
2018-05-26T22:02:57.279Z,90.20
2018-05-26T22:05:25.066Z,90.20
2018-05-26T22:07:53.401Z,90.10
2018-05-26T22:10:22.311Z,90.10
2018-05-26T22:12:51.516Z,90.60
2018-05-26T22:15:19.098Z,90.30
2018-05-26T22:17:46.991Z,90.60
2018-05-26T22:20:14.657Z,90.80
2018-05-26T22:22:42.291Z,91.00
2018-05-26T22:25:09.902Z,90.90
2018-05-26T22:27:37.453Z,90.90
2018-05-26T22:30:05.059Z,90.70
2018-05-26T22:32:32.623Z,90.50
2018-05-26T22:35:00.984Z,90.70
2018-05-26T22:37:28.573Z,90.60
2018-05-26T22:39:56.954Z,91.00
2018-05-26T22:42:24.648Z,91.00
2018-05-26T22:44:52.241Z,91.00
2018-05-26T22:47:20.601Z,91.30
2018-05-26T22:49:48.182Z,91.20
2018-05-26T22:52:15.836Z,91.40
2018-05-26T22:54:43.397Z,91.50
2018-05-26T22:57:11.007Z,91.70
2018-05-26T22:59:38.649Z,91.90
2018-05-26T23:02:06.251Z,92.10
2018-05-26T23:04:33.840Z,92.20
2018-05-26T23:07:01.499Z,92.30
2018-05-26T23:09:29.011Z,92.40
2018-05-26T23:11:56.842Z,92.60
2018-05-26T23:14:25.187Z,92.70
2018-05-26T23:16:53.068Z,92.70
2018-05-26T23:19:20.615Z,92.80
2018-05-26T23:21:48.352Z,92.70
2018-05-26T23:24:16.010Z,92.80
2018-05-26T23:26:44.422Z,93.00
2018-05-26T23:29:12.041Z,93.00
2018-05-26T23:31:39.604Z,93.00
2018-05-26T23:34:07.223Z,93.10
2018-05-26T23:36:34.801Z,93.50
2018-05-26T23:39:02.381Z,93.50
2018-05-26T23:41:29.912Z,93.60
2018-05-26T23:43:58.370Z,93.60
2018-05-26T23:46:26.015Z,93.50
2018-05-26T23:48:53.644Z,93.90
2018-05-26T23:51:21.205Z,93.90
2018-05-26T23:53:48.775Z,93.90
2018-05-26T23:56:16.327Z,93.90
2018-05-26T23:58:43.958Z,93.90
